createdAt,value
2023-02-28T00:00:44.776Z,1.22
2023-02-28T00:06:07.651Z,1.22
2023-02-28T00:11:29.557Z,1.22
2023-02-28T00:16:51.314Z,1.27
2023-02-28T00:22:13.212Z,1.21
2023-02-28T00:27:37.614Z,1.21
2023-02-28T00:33:00.667Z,1.25
2023-02-28T00:38:23.198Z,1.15
2023-02-28T00:43:45.226Z,1.10
2023-02-28T00:49:09.864Z,1.11
2023-02-28T00:54:31.627Z,1.12
2023-02-28T00:59:55.324Z,0.99
2023-02-28T01:05:17.175Z,1.01
2023-02-28T01:10:41.123Z,0.97
2023-02-28T01:16:09.076Z,1.05
2023-02-28T01:21:31.731Z,1.10
2023-02-28T01:26:53.713Z,1.16
2023-02-28T01:32:17.108Z,1.23
2023-02-28T01:37:38.974Z,1.03
2023-02-28T01:43:02.514Z,0.89
2023-02-28T01:48:28.854Z,0.78
2023-02-28T01:53:54.591Z,0.71
2023-02-28T01:59:25.348Z,0.76
2023-02-28T02:05:00.193Z,0.73
2023-02-28T02:10:45.836Z,0.67
2023-02-28T02:16:29.844Z,0.65
2023-02-28T02:22:09.941Z,0.64
2023-02-28T02:28:10.198Z,0.66
2023-02-28T02:34:01.341Z,0.55
2023-02-28T02:39:25.675Z,0.39
2023-02-28T02:44:51.500Z,0.33
2023-02-28T02:50:21.168Z,0.30
2023-02-28T02:55:45.774Z,0.17
2023-02-28T03:01:10.843Z,0.14
2023-02-28T03:06:32.814Z,0.05
2023-02-28T03:11:59.747Z,-0.03
2023-02-28T03:17:46.341Z,-0.10
2023-02-28T03:23:16.726Z,-0.20
2023-02-28T03:28:52.287Z,-0.26
2023-02-28T03:34:35.586Z,-0.29
2023-02-28T03:40:02.159Z,-0.24
2023-02-28T03:45:27.486Z,-0.28
2023-02-28T03:50:51.106Z,-0.28
2023-02-28T03:56:36.295Z,-0.29
2023-02-28T04:01:59.701Z,-0.33
2023-02-28T04:07:22.193Z,-0.35
2023-02-28T04:12:44.011Z,-0.38
2023-02-28T04:18:07.049Z,-0.39
2023-02-28T04:23:29.387Z,-0.46
2023-02-28T04:28:51.106Z,-0.48
2023-02-28T04:34:16.454Z,-0.60
2023-02-28T04:39:38.437Z,-0.74
2023-02-28T04:45:00.606Z,-0.77
2023-02-28T04:50:22.530Z,-0.76
2023-02-28T04:55:45.260Z,-0.79
2023-02-28T05:01:16.596Z,-0.79
2023-02-28T05:06:38.763Z,-0.81
2023-02-28T05:12:01.088Z,-0.84
2023-02-28T05:17:23.117Z,-0.88
2023-02-28T05:22:45.356Z,-1.00
2023-02-28T05:28:07.974Z,-1.09
2023-02-28T05:33:29.703Z,-1.08
2023-02-28T05:38:51.951Z,-1.05
2023-02-28T05:44:13.762Z,-1.02
2023-02-28T05:49:35.900Z,-1.01
2023-02-28T05:55:00.278Z,-1.08
2023-02-28T06:00:22.263Z,-1.07
2023-02-28T06:05:44.299Z,-1.03
2023-02-28T06:11:08.631Z,-1.00
2023-02-28T06:16:32.348Z,-0.95
2023-02-28T06:21:56.309Z,-0.88
2023-02-28T06:27:17.902Z,-0.90
2023-02-28T06:32:40.468Z,-0.88
2023-02-28T06:38:02.323Z,-0.80
2023-02-28T06:43:24.823Z,-0.71
2023-02-28T06:48:48.152Z,-0.65
2023-02-28T06:54:10.293Z,-0.55
2023-02-28T06:59:32.120Z,-0.55
2023-02-28T07:04:54.263Z,-0.41
2023-02-28T07:10:20.176Z,-0.30
2023-02-28T07:15:44.152Z,-0.32
2023-02-28T07:21:08.397Z,-0.50
2023-02-28T07:26:35.251Z,-0.67
2023-02-28T07:31:57.560Z,-0.70
2023-02-28T07:37:19.768Z,-0.60
2023-02-28T07:42:42.918Z,-0.40
2023-02-28T07:48:05.043Z,-0.34
2023-02-28T07:53:27.968Z,-0.28
2023-02-28T07:58:50.001Z,-0.13
2023-02-28T08:04:13.033Z,0.08
2023-02-28T08:09:36.274Z,0.13
2023-02-28T08:14:57.902Z,0.18
2023-02-28T08:20:22.834Z,0.19
2023-02-28T08:25:44.570Z,0.23
2023-02-28T08:31:14.630Z,0.37
2023-02-28T08:36:36.732Z,0.51
2023-02-28T08:42:07.301Z,0.63
2023-02-28T08:47:29.558Z,0.67
2023-02-28T08:52:51.566Z,0.68
2023-02-28T08:58:13.393Z,0.85
2023-02-28T09:03:35.561Z,1.19
2023-02-28T09:09:02.449Z,1.33
2023-02-28T09:14:24.197Z,1.43
2023-02-28T09:19:50.954Z,1.43
2023-02-28T09:25:12.477Z,1.55
2023-02-28T09:30:38.111Z,1.61
2023-02-28T09:36:01.921Z,1.71
2023-02-28T09:41:26.694Z,1.75
2023-02-28T09:46:54.567Z,1.75
2023-02-28T09:52:33.027Z,1.67
2023-02-28T09:57:57.903Z,1.65
2023-02-28T10:03:51.564Z,1.72
2023-02-28T10:09:34.140Z,1.99
2023-02-28T10:14:56.342Z,2.02
2023-02-28T10:20:26.002Z,2.16
2023-02-28T10:26:06.210Z,2.22
2023-02-28T10:31:28.075Z,2.23
2023-02-28T10:36:50.654Z,2.29
2023-02-28T10:42:31.533Z,2.41
2023-02-28T10:47:59.310Z,2.74
2023-02-28T10:53:27.024Z,3.02
2023-02-28T10:58:53.797Z,3.29
2023-02-28T11:04:30.751Z,3.61
2023-02-28T11:09:54.718Z,3.88
2023-02-28T11:15:35.908Z,3.77
2023-02-28T11:21:00.209Z,3.83
2023-02-28T11:26:45.155Z,3.95
2023-02-28T11:32:14.421Z,4.08
2023-02-28T11:37:36.936Z,4.03
2023-02-28T11:43:08.119Z,4.32
2023-02-28T11:48:44.578Z,4.18
2023-02-28T11:54:37.824Z,4.16
2023-02-28T12:00:03.172Z,4.07
2023-02-28T12:05:39.100Z,4.02
2023-02-28T12:11:15.409Z,4.18
2023-02-28T12:17:00.428Z,4.27
2023-02-28T12:22:32.509Z,4.39
2023-02-28T12:27:54.942Z,4.07
2023-02-28T12:33:19.654Z,4.02
2023-02-28T12:38:48.604Z,4.20
2023-02-28T12:44:32.960Z,4.28
2023-02-28T12:50:01.566Z,4.45
2023-02-28T12:55:32.846Z,4.41
2023-02-28T13:01:03.816Z,4.37
2023-02-28T13:06:54.451Z,4.30
2023-02-28T13:12:17.853Z,4.42
2023-02-28T13:17:50.059Z,4.46
2023-02-28T13:23:37.751Z,4.24
2023-02-28T13:29:05.558Z,4.19
2023-02-28T13:34:28.119Z,4.05
2023-02-28T13:39:50.763Z,4.17
2023-02-28T13:45:12.814Z,4.15
2023-02-28T13:50:39.567Z,4.26
2023-02-28T13:56:20.147Z,4.48
2023-02-28T14:01:52.539Z,4.43
2023-02-28T14:07:21.356Z,4.38
2023-02-28T14:13:01.561Z,4.23
2023-02-28T14:18:26.961Z,4.27
2023-02-28T14:24:04.324Z,4.23
2023-02-28T14:29:50.799Z,4.17
2023-02-28T14:35:38.003Z,4.18
2023-02-28T14:41:02.581Z,4.21
2023-02-28T14:46:30.429Z,4.04
2023-02-28T14:52:16.516Z,4.03
2023-02-28T14:57:45.310Z,4.02
2023-02-28T15:03:34.895Z,3.90
2023-02-28T15:09:16.109Z,3.81
2023-02-28T15:14:44.243Z,3.83
2023-02-28T15:20:09.707Z,3.85
2023-02-28T15:25:32.600Z,3.84
2023-02-28T15:31:00.865Z,3.75
2023-02-28T15:36:29.121Z,3.71
2023-02-28T15:41:51.956Z,3.59
2023-02-28T15:47:19.706Z,3.45
2023-02-28T15:52:44.150Z,3.39
2023-02-28T15:58:07.673Z,3.33
2023-02-28T16:03:39.616Z,3.33
2023-02-28T16:09:02.069Z,3.34
2023-02-28T16:14:28.735Z,3.29
2023-02-28T16:19:50.741Z,3.24
2023-02-28T16:25:25.889Z,3.13
2023-02-28T16:30:52.649Z,3.04
2023-02-28T16:36:22.388Z,2.95
2023-02-28T16:41:46.258Z,2.87
2023-02-28T16:47:12.664Z,2.86
2023-02-28T16:52:34.720Z,2.88
2023-02-28T16:57:59.477Z,2.82
2023-02-28T17:03:32.799Z,2.76
2023-02-28T17:08:57.794Z,2.69
2023-02-28T17:14:19.610Z,2.60
2023-02-28T17:19:44.553Z,2.49
2023-02-28T17:25:07.284Z,2.41
2023-02-28T17:30:29.717Z,2.25
2023-02-28T17:35:52.086Z,2.16
2023-02-28T17:41:14.178Z,2.08
2023-02-28T17:46:37.156Z,1.95
2023-02-28T17:51:58.916Z,1.86
2023-02-28T17:57:22.082Z,1.80
2023-02-28T18:02:44.906Z,1.71
2023-02-28T18:08:17.476Z,1.70
2023-02-28T18:13:39.841Z,1.69
2023-02-28T18:19:03.550Z,1.62
2023-02-28T18:24:26.096Z,1.59
2023-02-28T18:29:49.693Z,1.56
2023-02-28T18:35:11.418Z,1.53
2023-02-28T18:40:33.260Z,1.51
2023-02-28T18:45:55.754Z,1.48
2023-02-28T18:51:24.164Z,1.42
2023-02-28T18:56:46.771Z,1.36
2023-02-28T19:02:09.404Z,1.30
2023-02-28T19:07:31.790Z,1.24
2023-02-28T19:12:53.962Z,1.21
2023-02-28T19:18:18.602Z,1.17
2023-02-28T19:23:41.035Z,1.12
2023-02-28T19:29:05.415Z,1.05
2023-02-28T19:34:27.701Z,0.97
2023-02-28T19:39:49.580Z,0.88
2023-02-28T19:45:15.030Z,0.79
2023-02-28T19:50:37.954Z,0.66
2023-02-28T19:56:00.742Z,0.55
2023-02-28T20:01:22.859Z,0.46
2023-02-28T20:06:44.977Z,0.37
2023-02-28T20:12:17.826Z,0.33
2023-02-28T20:17:46.929Z,0.33
2023-02-28T20:23:09.353Z,0.27
2023-02-28T20:28:32.088Z,0.20
2023-02-28T20:33:54.217Z,0.16
2023-02-28T20:39:16.051Z,0.09
2023-02-28T20:44:39.412Z,0.07
2023-02-28T20:50:01.209Z,0.09
2023-02-28T20:55:23.241Z,0.07
2023-02-28T21:00:45.291Z,0.05
2023-02-28T21:06:07.401Z,0.05
2023-02-28T21:11:32.326Z,0.03
2023-02-28T21:16:54.171Z,0.00
2023-02-28T21:22:16.607Z,0.02
2023-02-28T21:27:38.440Z,0.01
2023-02-28T21:33:00.450Z,-0.01
2023-02-28T21:38:22.291Z,-0.01
2023-02-28T21:43:44.823Z,0.01
2023-02-28T21:49:07.043Z,-0.06
2023-02-28T21:54:28.579Z,-0.12
2023-02-28T21:59:50.409Z,-0.15
2023-02-28T22:05:12.640Z,-0.22
2023-02-28T22:10:35.982Z,-0.33
2023-02-28T22:16:02.648Z,-0.44
2023-02-28T22:21:24.906Z,-0.58
2023-02-28T22:26:46.677Z,-0.75
2023-02-28T22:32:10.062Z,-0.86
2023-02-28T22:37:31.955Z,-1.02
2023-02-28T22:42:53.803Z,-1.08
2023-02-28T22:48:15.593Z,-1.08
2023-02-28T22:53:38.126Z,-1.03
2023-02-28T22:59:01.468Z,-1.05
2023-02-28T23:04:25.843Z,-1.10
2023-02-28T23:09:50.944Z,-1.14
2023-02-28T23:15:12.882Z,-1.20
2023-02-28T23:20:34.395Z,-1.14
2023-02-28T23:25:56.633Z,-1.05
2023-02-28T23:31:18.456Z,-1.02
2023-02-28T23:36:46.290Z,-0.89
2023-02-28T23:42:08.236Z,-0.79
2023-02-28T23:47:34.069Z,-0.70
2023-02-28T23:52:56.006Z,-0.68
2023-02-28T23:58:17.931Z,-0.80
